sensor_id;sensor_type;location;lat;lon;timestamp;temperature;humidity
8711;DHT22;4392;47.400;8.062;2023-08-31T00:01:02;17.20;99.90
8711;DHT22;4392;47.400;8.062;2023-08-31T00:03:31;17.20;99.90
8711;DHT22;4392;47.400;8.062;2023-08-31T00:06:01;17.20;99.90
8711;DHT22;4392;47.400;8.062;2023-08-31T00:08:28;17.10;99.90
8711;DHT22;4392;47.400;8.062;2023-08-31T00:10:57;17.10;99.90
8711;DHT22;4392;47.400;8.062;2023-08-31T00:13:24;17.20;99.90
8711;DHT22;4392;47.400;8.062;2023-08-31T00:15:50;17.20;99.90
8711;DHT22;4392;47.400;8.062;2023-08-31T00:18:15;17.20;99.90
8711;DHT22;4392;47.400;8.062;2023-08-31T00:20:42;17.20;99.90
8711;DHT22;4392;47.400;8.062;2023-08-31T00:23:16;17.20;99.90
8711;DHT22;4392;47.400;8.062;2023-08-31T00:25:48;17.20;99.90
8711;DHT22;4392;47.400;8.062;2023-08-31T00:28:17;17.20;99.90
8711;DHT22;4392;47.400;8.062;2023-08-31T00:30:43;17.10;99.90
8711;DHT22;4392;47.400;8.062;2023-08-31T00:33:18;17.10;99.90
8711;DHT22;4392;47.400;8.062;2023-08-31T00:35:44;16.90;99.90
8711;DHT22;4392;47.400;8.062;2023-08-31T00:38:14;17.00;99.90
8711;DHT22;4392;47.400;8.062;2023-08-31T00:40:41;17.10;99.90
8711;DHT22;4392;47.400;8.062;2023-08-31T00:43:12;17.10;99.90
8711;DHT22;4392;47.400;8.062;2023-08-31T00:45:39;17.10;99.90
8711;DHT22;4392;47.400;8.062;2023-08-31T00:48:06;17.20;99.90
8711;DHT22;4392;47.400;8.062;2023-08-31T00:50:32;17.10;99.90
8711;DHT22;4392;47.400;8.062;2023-08-31T00:53:00;16.80;99.90
8711;DHT22;4392;47.400;8.062;2023-08-31T00:55:29;16.80;99.90
8711;DHT22;4392;47.400;8.062;2023-08-31T00:57:55;16.80;99.90
8711;DHT22;4392;47.400;8.062;2023-08-31T01:00:22;16.70;99.90
8711;DHT22;4392;47.400;8.062;2023-08-31T01:03:09;16.60;99.90
8711;DHT22;4392;47.400;8.062;2023-08-31T01:05:53;16.50;99.90
8711;DHT22;4392;47.400;8.062;2023-08-31T01:08:34;16.70;99.90
8711;DHT22;4392;47.400;8.062;2023-08-31T01:14:18;16.80;99.90
8711;DHT22;4392;47.400;8.062;2023-08-31T01:16:49;16.80;99.90
8711;DHT22;4392;47.400;8.062;2023-08-31T01:19:40;16.80;99.90
8711;DHT22;4392;47.400;8.062;2023-08-31T01:24:54;16.90;99.90
8711;DHT22;4392;47.400;8.062;2023-08-31T01:27:20;16.90;99.90
8711;DHT22;4392;47.400;8.062;2023-08-31T01:29:48;16.90;99.90
8711;DHT22;4392;47.400;8.062;2023-08-31T01:32:13;16.90;99.90
8711;DHT22;4392;47.400;8.062;2023-08-31T01:34:50;16.80;99.90
8711;DHT22;4392;47.400;8.062;2023-08-31T01:40:15;16.80;99.90
8711;DHT22;4392;47.400;8.062;2023-08-31T01:42:43;16.80;99.90
8711;DHT22;4392;47.400;8.062;2023-08-31T01:45:17;16.60;99.90
8711;DHT22;4392;47.400;8.062;2023-08-31T01:47:46;16.70;99.90
8711;DHT22;4392;47.400;8.062;2023-08-31T01:50:18;16.60;99.90
8711;DHT22;4392;47.400;8.062;2023-08-31T01:52:44;16.60;99.90
8711;DHT22;4392;47.400;8.062;2023-08-31T01:55:10;16.60;99.90
8711;DHT22;4392;47.400;8.062;2023-08-31T01:57:35;16.70;99.90
8711;DHT22;4392;47.400;8.062;2023-08-31T02:00:01;16.60;99.90
8711;DHT22;4392;47.400;8.062;2023-08-31T02:02:44;16.60;99.90
8711;DHT22;4392;47.400;8.062;2023-08-31T02:05:10;16.80;99.90
8711;DHT22;4392;47.400;8.062;2023-08-31T02:07:39;16.80;99.90
8711;DHT22;4392;47.400;8.062;2023-08-31T02:10:09;16.80;99.90
8711;DHT22;4392;47.400;8.062;2023-08-31T02:12:35;16.60;99.90
8711;DHT22;4392;47.400;8.062;2023-08-31T02:15:04;16.70;99.90
8711;DHT22;4392;47.400;8.062;2023-08-31T02:17:30;16.70;99.90
8711;DHT22;4392;47.400;8.062;2023-08-31T02:20:01;16.80;99.90
8711;DHT22;4392;47.400;8.062;2023-08-31T02:22:35;16.80;99.90
8711;DHT22;4392;47.400;8.062;2023-08-31T02:25:02;16.70;99.90
8711;DHT22;4392;47.400;8.062;2023-08-31T02:27:28;16.70;99.90
8711;DHT22;4392;47.400;8.062;2023-08-31T02:29:54;16.50;99.90
8711;DHT22;4392;47.400;8.062;2023-08-31T02:32:20;16.60;99.90
8711;DHT22;4392;47.400;8.062;2023-08-31T02:34:51;16.50;99.90
8711;DHT22;4392;47.400;8.062;2023-08-31T02:37:17;16.60;99.90
8711;DHT22;4392;47.400;8.062;2023-08-31T02:39:48;16.60;99.90
8711;DHT22;4392;47.400;8.062;2023-08-31T02:42:16;16.60;99.90
8711;DHT22;4392;47.400;8.062;2023-08-31T02:44:41;16.70;99.90
8711;DHT22;4392;47.400;8.062;2023-08-31T02:47:07;16.70;99.90
8711;DHT22;4392;47.400;8.062;2023-08-31T02:49:33;16.70;99.90
8711;DHT22;4392;47.400;8.062;2023-08-31T02:51:59;16.80;99.90
8711;DHT22;4392;47.400;8.062;2023-08-31T02:54:25;16.80;99.90
8711;DHT22;4392;47.400;8.062;2023-08-31T02:56:57;16.80;99.90
8711;DHT22;4392;47.400;8.062;2023-08-31T02:59:36;16.70;99.90
8711;DHT22;4392;47.400;8.062;2023-08-31T03:02:02;16.80;99.90
8711;DHT22;4392;47.400;8.062;2023-08-31T03:04:28;16.70;99.90
8711;DHT22;4392;47.400;8.062;2023-08-31T03:06:54;16.70;99.90
8711;DHT22;4392;47.400;8.062;2023-08-31T03:11:56;16.70;99.90
8711;DHT22;4392;47.400;8.062;2023-08-31T03:14:22;16.70;99.90
8711;DHT22;4392;47.400;8.062;2023-08-31T03:16:48;16.80;99.90
8711;DHT22;4392;47.400;8.062;2023-08-31T03:19:16;16.80;99.90
8711;DHT22;4392;47.400;8.062;2023-08-31T03:21:42;16.80;99.90
8711;DHT22;4392;47.400;8.062;2023-08-31T03:24:10;16.80;99.90
8711;DHT22;4392;47.400;8.062;2023-08-31T03:26:36;16.70;99.90
8711;DHT22;4392;47.400;8.062;2023-08-31T03:29:06;16.70;99.90
8711;DHT22;4392;47.400;8.062;2023-08-31T03:31:32;16.70;99.90
8711;DHT22;4392;47.400;8.062;2023-08-31T03:33:58;16.70;99.90
8711;DHT22;4392;47.400;8.062;2023-08-31T03:36:23;16.70;99.90
8711;DHT22;4392;47.400;8.062;2023-08-31T03:38:49;16.80;99.90
8711;DHT22;4392;47.400;8.062;2023-08-31T03:41:17;16.80;99.90
8711;DHT22;4392;47.400;8.062;2023-08-31T03:43:42;16.80;99.90
8711;DHT22;4392;47.400;8.062;2023-08-31T03:46:11;16.80;99.90
8711;DHT22;4392;47.400;8.062;2023-08-31T03:48:45;16.80;99.90
8711;DHT22;4392;47.400;8.062;2023-08-31T03:51:10;16.70;99.90
8711;DHT22;4392;47.400;8.062;2023-08-31T03:53:36;16.70;99.90
8711;DHT22;4392;47.400;8.062;2023-08-31T03:56:02;16.70;99.90
8711;DHT22;4392;47.400;8.062;2023-08-31T03:58:32;16.70;99.90
8711;DHT22;4392;47.400;8.062;2023-08-31T04:01:04;16.70;99.90
8711;DHT22;4392;47.400;8.062;2023-08-31T04:03:30;16.70;99.90
8711;DHT22;4392;47.400;8.062;2023-08-31T04:06:11;16.50;99.90
8711;DHT22;4392;47.400;8.062;2023-08-31T04:08:39;16.50;99.90
8711;DHT22;4392;47.400;8.062;2023-08-31T04:11:05;16.60;99.90
8711;DHT22;4392;47.400;8.062;2023-08-31T04:13:32;16.60;99.90
8711;DHT22;4392;47.400;8.062;2023-08-31T04:15:58;16.60;99.90
8711;DHT22;4392;47.400;8.062;2023-08-31T04:18:24;16.60;99.90
8711;DHT22;4392;47.400;8.062;2023-08-31T04:20:51;16.60;99.90
8711;DHT22;4392;47.400;8.062;2023-08-31T04:23:18;16.60;99.90
8711;DHT22;4392;47.400;8.062;2023-08-31T04:25:47;16.60;99.90
8711;DHT22;4392;47.400;8.062;2023-08-31T04:28:17;16.60;99.90
8711;DHT22;4392;47.400;8.062;2023-08-31T04:30:42;16.50;99.90
8711;DHT22;4392;47.400;8.062;2023-08-31T04:33:10;16.60;99.90
8711;DHT22;4392;47.400;8.062;2023-08-31T04:35:41;16.60;99.90
8711;DHT22;4392;47.400;8.062;2023-08-31T04:38:07;16.50;99.90
8711;DHT22;4392;47.400;8.062;2023-08-31T04:40:33;16.50;99.90
8711;DHT22;4392;47.400;8.062;2023-08-31T04:43:09;16.50;99.90
8711;DHT22;4392;47.400;8.062;2023-08-31T04:45:36;16.50;99.90
8711;DHT22;4392;47.400;8.062;2023-08-31T04:48:01;16.50;99.90
8711;DHT22;4392;47.400;8.062;2023-08-31T04:50:28;16.40;99.90
8711;DHT22;4392;47.400;8.062;2023-08-31T04:52:55;16.40;99.90
8711;DHT22;4392;47.400;8.062;2023-08-31T04:55:26;16.40;99.90
8711;DHT22;4392;47.400;8.062;2023-08-31T04:57:51;16.40;99.90
8711;DHT22;4392;47.400;8.062;2023-08-31T05:00:20;16.30;99.90
8711;DHT22;4392;47.400;8.062;2023-08-31T05:02:46;16.30;99.90
8711;DHT22;4392;47.400;8.062;2023-08-31T05:05:12;16.30;99.90
8711;DHT22;4392;47.400;8.062;2023-08-31T05:07:38;16.30;99.90
8711;DHT22;4392;47.400;8.062;2023-08-31T05:10:07;16.30;99.90
8711;DHT22;4392;47.400;8.062;2023-08-31T05:12:32;16.20;99.90
8711;DHT22;4392;47.400;8.062;2023-08-31T05:15:07;16.20;99.90
8711;DHT22;4392;47.400;8.062;2023-08-31T05:17:33;16.30;99.90
8711;DHT22;4392;47.400;8.062;2023-08-31T05:20:04;16.20;99.90
8711;DHT22;4392;47.400;8.062;2023-08-31T05:22:33;16.30;99.90
8711;DHT22;4392;47.400;8.062;2023-08-31T05:25:04;16.30;99.90
8711;DHT22;4392;47.400;8.062;2023-08-31T05:27:32;16.30;99.90
8711;DHT22;4392;47.400;8.062;2023-08-31T05:29:58;16.30;99.90
8711;DHT22;4392;47.400;8.062;2023-08-31T05:32:23;16.30;99.90
8711;DHT22;4392;47.400;8.062;2023-08-31T05:34:52;16.10;99.90
8711;DHT22;4392;47.400;8.062;2023-08-31T05:37:31;16.10;99.90
8711;DHT22;4392;47.400;8.062;2023-08-31T05:39:57;16.20;99.90
8711;DHT22;4392;47.400;8.062;2023-08-31T05:42:22;16.30;99.90
8711;DHT22;4392;47.400;8.062;2023-08-31T05:44:50;16.20;99.90
8711;DHT22;4392;47.400;8.062;2023-08-31T05:47:16;16.30;99.90
8711;DHT22;4392;47.400;8.062;2023-08-31T05:49:42;16.30;99.90
8711;DHT22;4392;47.400;8.062;2023-08-31T05:52:07;16.30;99.90
8711;DHT22;4392;47.400;8.062;2023-08-31T05:54:36;16.30;99.90
8711;DHT22;4392;47.400;8.062;2023-08-31T05:57:02;16.20;99.90
8711;DHT22;4392;47.400;8.062;2023-08-31T05:59:31;16.30;99.90
8711;DHT22;4392;47.400;8.062;2023-08-31T06:01:57;16.30;99.90
8711;DHT22;4392;47.400;8.062;2023-08-31T06:04:22;16.30;99.90
8711;DHT22;4392;47.400;8.062;2023-08-31T06:06:56;16.30;99.90
8711;DHT22;4392;47.400;8.062;2023-08-31T06:09:21;16.20;99.90
8711;DHT22;4392;47.400;8.062;2023-08-31T06:11:47;16.30;99.90
8711;DHT22;4392;47.400;8.062;2023-08-31T06:14:13;16.30;99.90
8711;DHT22;4392;47.400;8.062;2023-08-31T06:16:38;16.30;99.90
8711;DHT22;4392;47.400;8.062;2023-08-31T06:19:04;16.40;99.90
8711;DHT22;4392;47.400;8.062;2023-08-31T06:21:30;16.40;99.90
8711;DHT22;4392;47.400;8.062;2023-08-31T06:23:56;16.40;99.90
8711;DHT22;4392;47.400;8.062;2023-08-31T06:26:22;16.30;99.90
8711;DHT22;4392;47.400;8.062;2023-08-31T06:28:56;16.40;99.90
8711;DHT22;4392;47.400;8.062;2023-08-31T06:31:24;16.50;99.90
8711;DHT22;4392;47.400;8.062;2023-08-31T06:33:50;16.50;99.90
8711;DHT22;4392;47.400;8.062;2023-08-31T06:36:16;16.50;99.90
8711;DHT22;4392;47.400;8.062;2023-08-31T06:38:52;16.50;99.90
8711;DHT22;4392;47.400;8.062;2023-08-31T06:41:17;16.50;99.90
8711;DHT22;4392;47.400;8.062;2023-08-31T06:43:43;16.60;99.90
8711;DHT22;4392;47.400;8.062;2023-08-31T06:46:14;16.60;99.90
8711;DHT22;4392;47.400;8.062;2023-08-31T06:48:48;16.60;99.90
8711;DHT22;4392;47.400;8.062;2023-08-31T06:51:16;16.70;99.90
8711;DHT22;4392;47.400;8.062;2023-08-31T06:53:46;16.70;99.90
8711;DHT22;4392;47.400;8.062;2023-08-31T06:56:12;16.80;99.90
8711;DHT22;4392;47.400;8.062;2023-08-31T06:58:37;16.80;99.90
8711;DHT22;4392;47.400;8.062;2023-08-31T07:01:05;16.80;99.90
8711;DHT22;4392;47.400;8.062;2023-08-31T07:03:31;16.80;99.90
8711;DHT22;4392;47.400;8.062;2023-08-31T07:05:57;16.90;99.90
8711;DHT22;4392;47.400;8.062;2023-08-31T07:08:24;17.00;99.90
8711;DHT22;4392;47.400;8.062;2023-08-31T07:10:50;17.00;99.90
8711;DHT22;4392;47.400;8.062;2023-08-31T07:13:16;17.00;99.90
8711;DHT22;4392;47.400;8.062;2023-08-31T07:15:41;17.00;99.90
8711;DHT22;4392;47.400;8.062;2023-08-31T07:18:15;17.00;99.90
8711;DHT22;4392;47.400;8.062;2023-08-31T07:20:40;17.00;99.90
8711;DHT22;4392;47.400;8.062;2023-08-31T07:23:15;17.10;99.90
8711;DHT22;4392;47.400;8.062;2023-08-31T07:25:41;17.20;99.90
8711;DHT22;4392;47.400;8.062;2023-08-31T07:28:08;17.20;99.90
8711;DHT22;4392;47.400;8.062;2023-08-31T07:30:40;17.20;99.90
8711;DHT22;4392;47.400;8.062;2023-08-31T07:33:06;17.20;99.90
8711;DHT22;4392;47.400;8.062;2023-08-31T07:35:32;17.20;99.90
8711;DHT22;4392;47.400;8.062;2023-08-31T07:38:11;17.40;99.90
8711;DHT22;4392;47.400;8.062;2023-08-31T07:40:37;17.40;99.90
8711;DHT22;4392;47.400;8.062;2023-08-31T07:43:03;17.40;99.90
8711;DHT22;4392;47.400;8.062;2023-08-31T07:45:35;17.50;99.90
8711;DHT22;4392;47.400;8.062;2023-08-31T07:48:01;17.40;99.90
8711;DHT22;4392;47.400;8.062;2023-08-31T07:50:35;17.40;99.90
8711;DHT22;4392;47.400;8.062;2023-08-31T07:53:03;17.40;99.90
8711;DHT22;4392;47.400;8.062;2023-08-31T07:55:29;17.40;99.90
8711;DHT22;4392;47.400;8.062;2023-08-31T07:57:55;17.50;99.90
8711;DHT22;4392;47.400;8.062;2023-08-31T08:00:22;17.50;99.90
8711;DHT22;4392;47.400;8.062;2023-08-31T08:02:48;17.40;99.90
8711;DHT22;4392;47.400;8.062;2023-08-31T08:05:16;17.50;99.90
8711;DHT22;4392;47.400;8.062;2023-08-31T08:07:42;17.60;99.90
8711;DHT22;4392;47.400;8.062;2023-08-31T08:10:09;17.70;99.90
8711;DHT22;4392;47.400;8.062;2023-08-31T08:12:42;17.70;99.90
8711;DHT22;4392;47.400;8.062;2023-08-31T08:15:12;17.80;99.90
8711;DHT22;4392;47.400;8.062;2023-08-31T08:17:38;17.80;99.90
8711;DHT22;4392;47.400;8.062;2023-08-31T08:20:06;17.70;99.90
8711;DHT22;4392;47.400;8.062;2023-08-31T08:22:38;17.50;99.90
8711;DHT22;4392;47.400;8.062;2023-08-31T08:25:15;17.50;99.90
8711;DHT22;4392;47.400;8.062;2023-08-31T08:27:41;18.10;99.90
8711;DHT22;4392;47.400;8.062;2023-08-31T08:30:10;18.30;99.90
8711;DHT22;4392;47.400;8.062;2023-08-31T08:32:36;18.50;99.90
8711;DHT22;4392;47.400;8.062;2023-08-31T08:35:03;18.40;99.90
8711;DHT22;4392;47.400;8.062;2023-08-31T08:37:36;18.30;99.90
8711;DHT22;4392;47.400;8.062;2023-08-31T08:40:05;18.10;99.90
8711;DHT22;4392;47.400;8.062;2023-08-31T08:42:41;18.20;99.90
8711;DHT22;4392;47.400;8.062;2023-08-31T08:45:17;18.40;99.90
8711;DHT22;4392;47.400;8.062;2023-08-31T08:48:05;18.50;99.90
8711;DHT22;4392;47.400;8.062;2023-08-31T08:50:32;18.40;99.90
8711;DHT22;4392;47.400;8.062;2023-08-31T08:53:02;18.10;99.90
8711;DHT22;4392;47.400;8.062;2023-08-31T08:55:30;17.90;99.90
8711;DHT22;4392;47.400;8.062;2023-08-31T08:57:59;18.00;99.90
8711;DHT22;4392;47.400;8.062;2023-08-31T09:00:26;18.30;99.90
8711;DHT22;4392;47.400;8.062;2023-08-31T09:02:53;18.40;99.90
8711;DHT22;4392;47.400;8.062;2023-08-31T09:05:19;18.30;99.90
8711;DHT22;4392;47.400;8.062;2023-08-31T09:10:40;18.50;99.90
8711;DHT22;4392;47.400;8.062;2023-08-31T09:13:13;18.40;99.90
8711;DHT22;4392;47.400;8.062;2023-08-31T09:18:30;17.90;99.90
8711;DHT22;4392;47.400;8.062;2023-08-31T09:20:57;18.00;99.90
8711;DHT22;4392;47.400;8.062;2023-08-31T09:23:23;18.10;99.90
8711;DHT22;4392;47.400;8.062;2023-08-31T09:25:54;18.00;99.90
8711;DHT22;4392;47.400;8.062;2023-08-31T09:28:21;18.00;99.90
8711;DHT22;4392;47.400;8.062;2023-08-31T09:30:49;18.00;99.70
8711;DHT22;4392;47.400;8.062;2023-08-31T09:33:22;17.90;99.80
8711;DHT22;4392;47.400;8.062;2023-08-31T09:35:54;17.80;99.50
8711;DHT22;4392;47.400;8.062;2023-08-31T09:38:22;17.80;99.90
8711;DHT22;4392;47.400;8.062;2023-08-31T09:41:19;17.80;99.90
8711;DHT22;4392;47.400;8.062;2023-08-31T09:43:47;17.80;99.90
8711;DHT22;4392;47.400;8.062;2023-08-31T09:46:13;17.90;99.90
8711;DHT22;4392;47.400;8.062;2023-08-31T09:48:47;17.80;99.90
8711;DHT22;4392;47.400;8.062;2023-08-31T09:51:14;17.90;99.90
8711;DHT22;4392;47.400;8.062;2023-08-31T09:53:44;17.90;99.90
8711;DHT22;4392;47.400;8.062;2023-08-31T09:56:13;17.90;99.90
8711;DHT22;4392;47.400;8.062;2023-08-31T09:58:52;18.00;99.90
8711;DHT22;4392;47.400;8.062;2023-08-31T10:01:18;18.40;99.90
8711;DHT22;4392;47.400;8.062;2023-08-31T10:03:44;18.70;99.90
8711;DHT22;4392;47.400;8.062;2023-08-31T10:06:10;18.80;99.90
8711;DHT22;4392;47.400;8.062;2023-08-31T10:08:36;18.90;99.90
8711;DHT22;4392;47.400;8.062;2023-08-31T10:11:06;18.90;99.90
8711;DHT22;4392;47.400;8.062;2023-08-31T10:13:36;18.90;99.90
8711;DHT22;4392;47.400;8.062;2023-08-31T10:16:07;19.00;99.90
8711;DHT22;4392;47.400;8.062;2023-08-31T10:18:39;19.00;99.90
8711;DHT22;4392;47.400;8.062;2023-08-31T10:21:05;18.90;99.60
8711;DHT22;4392;47.400;8.062;2023-08-31T10:23:32;18.90;99.90
8711;DHT22;4392;47.400;8.062;2023-08-31T10:26:02;18.90;99.90
8711;DHT22;4392;47.400;8.062;2023-08-31T10:28:29;19.00;98.40
8711;DHT22;4392;47.400;8.062;2023-08-31T10:31:06;18.70;94.70
8711;DHT22;4392;47.400;8.062;2023-08-31T10:33:47;18.40;95.70
8711;DHT22;4392;47.400;8.062;2023-08-31T10:37:07;18.70;99.90
8711;DHT22;4392;47.400;8.062;2023-08-31T10:39:37;18.90;99.90
8711;DHT22;4392;47.400;8.062;2023-08-31T10:42:05;19.00;99.90
8711;DHT22;4392;47.400;8.062;2023-08-31T10:44:37;19.10;99.90
8711;DHT22;4392;47.400;8.062;2023-08-31T10:47:04;19.20;99.90
8711;DHT22;4392;47.400;8.062;2023-08-31T10:49:32;19.30;99.30
8711;DHT22;4392;47.400;8.062;2023-08-31T10:52:19;19.20;99.90
8711;DHT22;4392;47.400;8.062;2023-08-31T10:54:46;19.30;98.80
8711;DHT22;4392;47.400;8.062;2023-08-31T10:57:12;19.30;98.70
8711;DHT22;4392;47.400;8.062;2023-08-31T10:59:50;19.40;96.70
8711;DHT22;4392;47.400;8.062;2023-08-31T11:02:43;19.40;99.30
8711;DHT22;4392;47.400;8.062;2023-08-31T11:07:38;19.30;97.20
8711;DHT22;4392;47.400;8.062;2023-08-31T11:10:23;19.30;97.40
8711;DHT22;4392;47.400;8.062;2023-08-31T11:12:52;19.40;97.50
8711;DHT22;4392;47.400;8.062;2023-08-31T11:15:22;19.40;97.80
8711;DHT22;4392;47.400;8.062;2023-08-31T11:17:52;19.20;95.00
8711;DHT22;4392;47.400;8.062;2023-08-31T11:20:20;18.90;96.90
8711;DHT22;4392;47.400;8.062;2023-08-31T11:22:51;19.10;97.80
8711;DHT22;4392;47.400;8.062;2023-08-31T11:25:25;19.20;95.60
8711;DHT22;4392;47.400;8.062;2023-08-31T11:27:59;19.30;96.80
8711;DHT22;4392;47.400;8.062;2023-08-31T11:30:27;19.40;95.60
8711;DHT22;4392;47.400;8.062;2023-08-31T11:32:54;19.40;96.30
8711;DHT22;4392;47.400;8.062;2023-08-31T11:35:30;19.50;97.50
8711;DHT22;4392;47.400;8.062;2023-08-31T11:38:04;19.50;97.40
8711;DHT22;4392;47.400;8.062;2023-08-31T11:40:36;19.60;97.30
8711;DHT22;4392;47.400;8.062;2023-08-31T11:43:04;19.70;97.20
8711;DHT22;4392;47.400;8.062;2023-08-31T11:45:30;19.70;96.80
8711;DHT22;4392;47.400;8.062;2023-08-31T11:48:04;19.70;96.90
8711;DHT22;4392;47.400;8.062;2023-08-31T11:50:30;19.70;96.30
8711;DHT22;4392;47.400;8.062;2023-08-31T11:52:59;19.70;94.80
8711;DHT22;4392;47.400;8.062;2023-08-31T11:55:25;19.70;93.80
8711;DHT22;4392;47.400;8.062;2023-08-31T11:57:54;19.50;93.20
8711;DHT22;4392;47.400;8.062;2023-08-31T12:00:25;19.50;93.40
8711;DHT22;4392;47.400;8.062;2023-08-31T12:03:11;19.50;93.50
8711;DHT22;4392;47.400;8.062;2023-08-31T12:05:47;19.40;94.00
8711;DHT22;4392;47.400;8.062;2023-08-31T12:08:14;19.50;96.00
8711;DHT22;4392;47.400;8.062;2023-08-31T12:10:43;19.50;94.70
8711;DHT22;4392;47.400;8.062;2023-08-31T12:13:10;19.60;95.80
8711;DHT22;4392;47.400;8.062;2023-08-31T12:15:39;19.70;96.40
8711;DHT22;4392;47.400;8.062;2023-08-31T12:18:13;19.80;96.30
8711;DHT22;4392;47.400;8.062;2023-08-31T12:20:52;19.80;94.60
8711;DHT22;4392;47.400;8.062;2023-08-31T12:23:24;19.70;93.60
8711;DHT22;4392;47.400;8.062;2023-08-31T12:25:52;19.70;94.50
8711;DHT22;4392;47.400;8.062;2023-08-31T12:28:19;19.60;93.90
8711;DHT22;4392;47.400;8.062;2023-08-31T12:30:53;19.60;93.00
8711;DHT22;4392;47.400;8.062;2023-08-31T12:33:20;19.60;93.90
8711;DHT22;4392;47.400;8.062;2023-08-31T12:35:48;19.70;93.80
8711;DHT22;4392;47.400;8.062;2023-08-31T12:38:14;19.90;96.10
8711;DHT22;4392;47.400;8.062;2023-08-31T12:40:39;19.90;93.50
8711;DHT22;4392;47.400;8.062;2023-08-31T12:43:06;19.90;92.80
8711;DHT22;4392;47.400;8.062;2023-08-31T12:45:36;19.80;92.70
8711;DHT22;4392;47.400;8.062;2023-08-31T12:48:02;19.70;92.30
8711;DHT22;4392;47.400;8.062;2023-08-31T12:50:31;19.70;92.50
8711;DHT22;4392;47.400;8.062;2023-08-31T12:52:59;19.60;92.60
8711;DHT22;4392;47.400;8.062;2023-08-31T12:55:25;19.60;92.60
8711;DHT22;4392;47.400;8.062;2023-08-31T12:57:51;19.50;92.60
8711;DHT22;4392;47.400;8.062;2023-08-31T13:00:17;19.60;92.60
8711;DHT22;4392;47.400;8.062;2023-08-31T13:02:43;19.60;92.90
8711;DHT22;4392;47.400;8.062;2023-08-31T13:05:13;19.60;92.70
8711;DHT22;4392;47.400;8.062;2023-08-31T13:07:39;19.60;92.60
8711;DHT22;4392;47.400;8.062;2023-08-31T13:10:05;19.60;92.80
8711;DHT22;4392;47.400;8.062;2023-08-31T13:12:38;19.70;92.60
8711;DHT22;4392;47.400;8.062;2023-08-31T13:15:04;19.70;92.40
8711;DHT22;4392;47.400;8.062;2023-08-31T13:17:30;19.70;92.60
8711;DHT22;4392;47.400;8.062;2023-08-31T13:19:57;19.70;92.30
8711;DHT22;4392;47.400;8.062;2023-08-31T13:22:23;19.70;92.20
8711;DHT22;4392;47.400;8.062;2023-08-31T13:24:50;19.80;92.10
8711;DHT22;4392;47.400;8.062;2023-08-31T13:27:18;19.80;91.80
8711;DHT22;4392;47.400;8.062;2023-08-31T13:29:44;19.80;91.90
8711;DHT22;4392;47.400;8.062;2023-08-31T13:32:10;19.70;92.20
8711;DHT22;4392;47.400;8.062;2023-08-31T13:34:45;19.80;92.30
8711;DHT22;4392;47.400;8.062;2023-08-31T13:37:17;19.80;92.50
8711;DHT22;4392;47.400;8.062;2023-08-31T13:39:45;19.80;92.10
8711;DHT22;4392;47.400;8.062;2023-08-31T13:42:11;19.80;92.20
8711;DHT22;4392;47.400;8.062;2023-08-31T13:44:37;19.80;92.20
8711;DHT22;4392;47.400;8.062;2023-08-31T13:47:06;19.70;92.30
8711;DHT22;4392;47.400;8.062;2023-08-31T13:49:32;19.80;92.40
8711;DHT22;4392;47.400;8.062;2023-08-31T13:51:59;19.90;91.80
8711;DHT22;4392;47.400;8.062;2023-08-31T13:54:25;19.90;91.90
8711;DHT22;4392;47.400;8.062;2023-08-31T13:56:51;19.90;91.80
8711;DHT22;4392;47.400;8.062;2023-08-31T13:59:21;20.00;91.40
8711;DHT22;4392;47.400;8.062;2023-08-31T14:01:47;19.90;91.50
8711;DHT22;4392;47.400;8.062;2023-08-31T14:04:14;19.90;91.40
8711;DHT22;4392;47.400;8.062;2023-08-31T14:06:40;19.90;91.50
8711;DHT22;4392;47.400;8.062;2023-08-31T14:09:05;20.00;91.30
8711;DHT22;4392;47.400;8.062;2023-08-31T14:11:39;20.00;91.60
8711;DHT22;4392;47.400;8.062;2023-08-31T14:14:07;20.00;91.60
8711;DHT22;4392;47.400;8.062;2023-08-31T14:16:40;20.10;91.30
8711;DHT22;4392;47.400;8.062;2023-08-31T14:19:05;20.10;91.40
8711;DHT22;4392;47.400;8.062;2023-08-31T14:21:31;20.10;91.20
8711;DHT22;4392;47.400;8.062;2023-08-31T14:23:57;20.00;91.40
8711;DHT22;4392;47.400;8.062;2023-08-31T14:26:23;19.80;91.20
8711;DHT22;4392;47.400;8.062;2023-08-31T14:28:55;19.80;91.30
8711;DHT22;4392;47.400;8.062;2023-08-31T14:31:23;19.90;91.10
8711;DHT22;4392;47.400;8.062;2023-08-31T14:33:53;20.00;91.00
8711;DHT22;4392;47.400;8.062;2023-08-31T14:36:29;20.10;90.20
8711;DHT22;4392;47.400;8.062;2023-08-31T14:38:54;20.20;90.20
8711;DHT22;4392;47.400;8.062;2023-08-31T14:41:20;20.20;90.60
8711;DHT22;4392;47.400;8.062;2023-08-31T14:43:49;20.20;90.40
8711;DHT22;4392;47.400;8.062;2023-08-31T14:46:20;20.20;90.90
8711;DHT22;4392;47.400;8.062;2023-08-31T14:48:47;20.10;90.50
8711;DHT22;4392;47.400;8.062;2023-08-31T14:51:14;20.10;90.80
8711;DHT22;4392;47.400;8.062;2023-08-31T14:53:42;20.10;90.30
8711;DHT22;4392;47.400;8.062;2023-08-31T14:56:08;20.00;90.20
8711;DHT22;4392;47.400;8.062;2023-08-31T14:58:34;20.20;90.40
8711;DHT22;4392;47.400;8.062;2023-08-31T15:01:02;20.20;90.10
8711;DHT22;4392;47.400;8.062;2023-08-31T15:03:31;20.30;90.40
8711;DHT22;4392;47.400;8.062;2023-08-31T15:05:56;20.20;90.30
8711;DHT22;4392;47.400;8.062;2023-08-31T15:08:37;20.20;90.10
8711;DHT22;4392;47.400;8.062;2023-08-31T15:11:05;20.20;90.20
8711;DHT22;4392;47.400;8.062;2023-08-31T15:13:31;20.20;90.20
8711;DHT22;4392;47.400;8.062;2023-08-31T15:15:57;20.10;92.90
8711;DHT22;4392;47.400;8.062;2023-08-31T15:18:26;20.20;95.00
8711;DHT22;4392;47.400;8.062;2023-08-31T15:20:51;20.30;91.10
8711;DHT22;4392;47.400;8.062;2023-08-31T15:23:17;20.20;90.60
8711;DHT22;4392;47.400;8.062;2023-08-31T15:25:43;20.30;90.10
8711;DHT22;4392;47.400;8.062;2023-08-31T15:28:14;20.40;90.40
8711;DHT22;4392;47.400;8.062;2023-08-31T15:30:40;20.50;89.70
8711;DHT22;4392;47.400;8.062;2023-08-31T15:33:05;20.60;91.40
8711;DHT22;4392;47.400;8.062;2023-08-31T15:35:34;20.60;90.00
8711;DHT22;4392;47.400;8.062;2023-08-31T15:38:05;20.50;91.70
8711;DHT22;4392;47.400;8.062;2023-08-31T15:40:30;20.30;91.20
8711;DHT22;4392;47.400;8.062;2023-08-31T15:43:02;20.40;94.50
8711;DHT22;4392;47.400;8.062;2023-08-31T15:45:30;20.50;95.10
8711;DHT22;4392;47.400;8.062;2023-08-31T15:47:59;20.60;95.80
8711;DHT22;4392;47.400;8.062;2023-08-31T15:50:25;20.60;96.20
8711;DHT22;4392;47.400;8.062;2023-08-31T15:52:51;20.60;96.00
8711;DHT22;4392;47.400;8.062;2023-08-31T15:55:16;20.50;91.70
8711;DHT22;4392;47.400;8.062;2023-08-31T15:57:42;20.40;90.90
8711;DHT22;4392;47.400;8.062;2023-08-31T16:00:17;20.30;90.70
8711;DHT22;4392;47.400;8.062;2023-08-31T16:02:49;20.40;91.10
8711;DHT22;4392;47.400;8.062;2023-08-31T16:05:15;20.30;93.60
8711;DHT22;4392;47.400;8.062;2023-08-31T16:07:40;20.40;91.90
8711;DHT22;4392;47.400;8.062;2023-08-31T16:10:07;20.40;90.30
8711;DHT22;4392;47.400;8.062;2023-08-31T16:12:34;20.50;89.80
8711;DHT22;4392;47.400;8.062;2023-08-31T16:15:01;20.40;89.50
8711;DHT22;4392;47.400;8.062;2023-08-31T16:17:27;20.30;90.00
8711;DHT22;4392;47.400;8.062;2023-08-31T16:19:53;20.30;90.20
8711;DHT22;4392;47.400;8.062;2023-08-31T16:22:25;20.30;90.30
8711;DHT22;4392;47.400;8.062;2023-08-31T16:24:57;20.30;90.00
8711;DHT22;4392;47.400;8.062;2023-08-31T16:27:22;20.30;90.00
8711;DHT22;4392;47.400;8.062;2023-08-31T16:29:58;20.40;89.80
8711;DHT22;4392;47.400;8.062;2023-08-31T16:32:24;20.30;90.80